BAW24JK EGLL-EDDH
Flight info
| Callsign | BAW24JK |
|---|---|
| Flight time | 1h 3m |
| Altitude | 39000 |
| Route | BPK Q295 SOMVA DCT MAVAS DCT VALAM DCT GASTU DCT OSTOR T904 RIBSO RIBSO3P |
| Aircraft | B77W/H-SDE1E2E3FGHIJ2J3J4J5M1RWXY/LB1D1 |
Departure
| Time | 2026-04-24 20:33 |
|---|---|
| Airport | London Heathrow Airport (EGLL) |
Arrival
| Time | 2026-04-24 21:36 |
|---|---|
| Airport | Hamburg Helmut Schmidt Airport (EDDH) |
| Time | Latitude | Longitude | Altitude | Speed | Heading |
|---|---|---|---|---|---|
| 2026-04-24 19:36 | 51.47316 | -0.47737 | 91 ft | 0 kts | 92° |
| 2026-04-24 20:08 | 51.47317 | -0.47749 | 91 ft | 4 kts | 90° |
| 2026-04-24 20:08 | 51.47315 | -0.47792 | 92 ft | 4 kts | 85° |
| 2026-04-24 20:09 | 51.47314 | -0.47835 | 92 ft | 4 kts | 103° |
| 2026-04-24 20:09 | 51.47324 | -0.47865 | 95 ft | 4 kts | 136° |
| 2026-04-24 20:09 | 51.47337 | -0.47880 | 93 ft | 4 kts | 177° |
| 2026-04-24 20:09 | 51.47365 | -0.47876 | 93 ft | 1 kts | 181° |
| 2026-04-24 20:10 | 51.47369 | -0.47876 | 93 ft | 0 kts | 181° |
| 2026-04-24 20:13 | 51.47364 | -0.47876 | 93 ft | 1 kts | 181° |
| 2026-04-24 20:13 | 51.47362 | -0.47876 | 93 ft | 0 kts | 181° |
| 2026-04-24 20:13 | 51.47326 | -0.47876 | 92 ft | 19 kts | 180° |
| 2026-04-24 20:14 | 51.47126 | -0.47872 | 91 ft | 31 kts | 180° |
| 2026-04-24 20:14 | 51.46935 | -0.47870 | 90 ft | 23 kts | 180° |
| 2026-04-24 20:14 | 51.46852 | -0.47871 | 91 ft | 6 kts | 180° |
| 2026-04-24 20:14 | 51.46835 | -0.47871 | 90 ft | 0 kts | 180° |
| 2026-04-24 20:18 | 51.46806 | -0.47871 | 91 ft | 10 kts | 181° |
| 2026-04-24 20:19 | 51.46734 | -0.47871 | 90 ft | 11 kts | 178° |
| 2026-04-24 20:19 | 51.46666 | -0.47915 | 92 ft | 12 kts | 238° |
| 2026-04-24 20:19 | 51.46655 | -0.48046 | 90 ft | 9 kts | 268° |
| 2026-04-24 20:19 | 51.46654 | -0.48083 | 93 ft | 0 kts | 269° |
| 2026-04-24 20:22 | 51.46654 | -0.48133 | 93 ft | 9 kts | 270° |
| 2026-04-24 20:22 | 51.46654 | -0.48235 | 95 ft | 9 kts | 270° |
| 2026-04-24 20:22 | 51.46653 | -0.48322 | 94 ft | 5 kts | 269° |
| 2026-04-24 20:23 | 51.46653 | -0.48335 | 92 ft | 0 kts | 269° |
| 2026-04-24 20:23 | 51.46653 | -0.48336 | 92 ft | 0 kts | 269° |
| 2026-04-24 20:24 | 51.46653 | -0.48461 | 94 ft | 16 kts | 269° |
| 2026-04-24 20:24 | 51.46653 | -0.48591 | 95 ft | 4 kts | 270° |
| 2026-04-24 20:24 | 51.46653 | -0.48592 | 95 ft | 0 kts | 270° |
| 2026-04-24 20:28 | 51.46653 | -0.48635 | 92 ft | 14 kts | 270° |
| 2026-04-24 20:28 | 51.46640 | -0.48725 | 95 ft | 8 kts | 230° |
| 2026-04-24 20:29 | 51.46609 | -0.48756 | 94 ft | 6 kts | 205° |
| 2026-04-24 20:29 | 51.46543 | -0.48781 | 91 ft | 8 kts | 180° |
| 2026-04-24 20:29 | 51.46511 | -0.48767 | 91 ft | 0 kts | 152° |
| 2026-04-24 20:30 | 51.46477 | -0.48648 | 94 ft | 24 kts | 90° |
| 2026-04-24 20:30 | 51.46477 | -0.48600 | 92 ft | 0 kts | 89° |
| 2026-04-24 20:32 | 51.46479 | -0.48397 | 92 ft | 49 kts | 89° |
| 2026-04-24 20:33 | 51.46483 | -0.47347 | 91 ft | 135 kts | 90° |
| 2026-04-24 20:33 | 51.46486 | -0.45674 | 415 ft | 165 kts | 89° |
| 2026-04-24 20:33 | 51.46515 | -0.43797 | 1408 ft | 163 kts | 89° |
| 2026-04-24 20:33 | 51.46574 | -0.42012 | 2224 ft | 166 kts | 79° |
| 2026-04-24 20:34 | 51.47100 | -0.40174 | 2566 ft | 199 kts | 57° |
| 2026-04-24 20:34 | 51.48018 | -0.38280 | 2844 ft | 234 kts | 53° |
| 2026-04-24 20:34 | 51.49102 | -0.36178 | 3485 ft | 251 kts | 52° |
| 2026-04-24 20:34 | 51.50227 | -0.34020 | 4454 ft | 257 kts | 52° |
| 2026-04-24 20:35 | 51.51340 | -0.31889 | 5346 ft | 263 kts | 51° |
| 2026-04-24 20:35 | 51.52439 | -0.29513 | 5898 ft | 267 kts | 64° |
| 2026-04-24 20:35 | 51.53080 | -0.26708 | 5989 ft | 272 kts | 75° |
| 2026-04-24 20:35 | 51.53663 | -0.23694 | 6000 ft | 271 kts | 73° |
| 2026-04-24 20:36 | 51.54237 | -0.20947 | 5996 ft | 266 kts | 70° |
| 2026-04-24 20:36 | 51.55282 | -0.18555 | 6004 ft | 269 kts | 37° |
| 2026-04-24 20:36 | 51.57029 | -0.17443 | 6013 ft | 276 kts | 12° |
| 2026-04-24 20:36 | 51.58933 | -0.16890 | 6020 ft | 280 kts | 13° |
| 2026-04-24 20:37 | 51.60861 | -0.16410 | 6628 ft | 281 kts | 8° |
| 2026-04-24 20:37 | 51.62783 | -0.15927 | 7730 ft | 280 kts | 12° |
| 2026-04-24 20:37 | 51.64692 | -0.15248 | 8716 ft | 283 kts | 15° |
| 2026-04-24 20:37 | 51.66620 | -0.14470 | 9606 ft | 288 kts | 15° |
| 2026-04-24 20:38 | 51.68569 | -0.13624 | 10494 ft | 293 kts | 16° |
| 2026-04-24 20:38 | 51.70548 | -0.12733 | 11383 ft | 299 kts | 16° |
| 2026-04-24 20:38 | 51.72551 | -0.11781 | 12325 ft | 301 kts | 22° |
| 2026-04-24 20:38 | 51.74298 | -0.09897 | 13230 ft | 307 kts | 50° |
| 2026-04-24 20:39 | 51.75313 | -0.06880 | 14216 ft | 309 kts | 76° |
| 2026-04-24 20:39 | 51.75693 | -0.03423 | 14853 ft | 324 kts | 83° |
| 2026-04-24 20:39 | 51.75990 | 0.00367 | 15103 ft | 357 kts | 84° |
| 2026-04-24 20:39 | 51.76295 | 0.04507 | 15357 ft | 386 kts | 84° |
| 2026-04-24 20:40 | 51.76628 | 0.08887 | 16079 ft | 400 kts | 83° |
| 2026-04-24 20:40 | 51.76987 | 0.13391 | 16964 ft | 408 kts | 83° |
| 2026-04-24 20:40 | 51.77360 | 0.17989 | 17962 ft | 413 kts | 83° |
| 2026-04-24 20:40 | 51.77728 | 0.22592 | 18944 ft | 418 kts | 83° |
| 2026-04-24 20:41 | 51.78085 | 0.27278 | 19791 ft | 425 kts | 83° |
| 2026-04-24 20:41 | 51.78464 | 0.32075 | 20546 ft | 434 kts | 83° |
| 2026-04-24 20:41 | 51.78858 | 0.36955 | 21297 ft | 442 kts | 83° |
| 2026-04-24 20:41 | 51.79259 | 0.41914 | 22042 ft | 450 kts | 83° |
| 2026-04-24 20:42 | 51.79665 | 0.46980 | 22747 ft | 457 kts | 83° |
| 2026-04-24 20:42 | 51.80074 | 0.52106 | 23469 ft | 464 kts | 83° |
| 2026-04-24 20:42 | 51.80485 | 0.57313 | 24145 ft | 471 kts | 83° |
| 2026-04-24 20:42 | 51.80994 | 0.62569 | 24787 ft | 478 kts | 78° |
| 2026-04-24 20:43 | 51.81828 | 0.67798 | 25395 ft | 484 kts | 72° |
| 2026-04-24 20:43 | 51.83005 | 0.72912 | 26047 ft | 488 kts | 65° |
| 2026-04-24 20:43 | 51.84400 | 0.77944 | 26702 ft | 492 kts | 65° |
| 2026-04-24 20:43 | 51.85770 | 0.82974 | 27269 ft | 497 kts | 65° |
| 2026-04-24 20:44 | 51.87151 | 0.88210 | 27819 ft | 503 kts | 66° |
| 2026-04-24 20:44 | 51.88489 | 0.93395 | 28359 ft | 507 kts | 66° |
| 2026-04-24 20:44 | 51.89862 | 0.98773 | 28890 ft | 512 kts | 66° |
| 2026-04-24 20:44 | 51.91201 | 1.04045 | 29390 ft | 516 kts | 66° |
| 2026-04-24 20:45 | 51.92567 | 1.09429 | 29849 ft | 520 kts | 66° |
| 2026-04-24 20:45 | 51.93948 | 1.14877 | 30250 ft | 524 kts | 66° |
| 2026-04-24 20:45 | 51.95336 | 1.20351 | 30665 ft | 527 kts | 66° |
| 2026-04-24 20:45 | 51.96730 | 1.25860 | 31184 ft | 527 kts | 66° |
| 2026-04-24 20:46 | 51.98112 | 1.31329 | 31823 ft | 524 kts | 66° |
| 2026-04-24 20:46 | 51.99486 | 1.36781 | 32409 ft | 521 kts | 66° |
| 2026-04-24 20:46 | 52.00852 | 1.42219 | 32996 ft | 519 kts | 66° |
| 2026-04-24 20:46 | 52.02215 | 1.47652 | 33528 ft | 518 kts | 66° |
| 2026-04-24 20:47 | 52.03568 | 1.53062 | 33958 ft | 518 kts | 66° |
| 2026-04-24 20:47 | 52.04921 | 1.58480 | 34386 ft | 518 kts | 66° |
| 2026-04-24 20:47 | 52.06273 | 1.63902 | 34835 ft | 517 kts | 66° |
| 2026-04-24 20:47 | 52.07620 | 1.69319 | 35312 ft | 516 kts | 66° |
| 2026-04-24 20:48 | 52.08956 | 1.74712 | 35767 ft | 514 kts | 66° |
| 2026-04-24 20:48 | 52.10289 | 1.80107 | 36189 ft | 513 kts | 66° |
| 2026-04-24 20:48 | 52.11616 | 1.85488 | 36602 ft | 512 kts | 66° |
| 2026-04-24 20:48 | 52.12935 | 1.90855 | 37100 ft | 508 kts | 67° |
| 2026-04-24 20:49 | 52.14238 | 1.96171 | 37692 ft | 502 kts | 67° |
| 2026-04-24 20:49 | 52.15529 | 2.01448 | 38181 ft | 498 kts | 67° |
| 2026-04-24 20:49 | 52.16803 | 2.06664 | 38493 ft | 498 kts | 67° |
| 2026-04-24 20:49 | 52.18082 | 2.11912 | 38777 ft | 498 kts | 67° |
| 2026-04-24 20:50 | 52.19357 | 2.17159 | 39044 ft | 499 kts | 67° |
| 2026-04-24 20:50 | 52.20636 | 2.22431 | 39214 ft | 502 kts | 67° |
| 2026-04-24 20:50 | 52.23202 | 2.33055 | 39269 ft | 503 kts | 67° |
| 2026-04-24 20:51 | 52.25740 | 2.43617 | 39265 ft | 497 kts | 67° |
| 2026-04-24 20:51 | 52.28252 | 2.54110 | 39266 ft | 496 kts | 67° |
| 2026-04-24 20:52 | 52.30349 | 2.62924 | 39272 ft | 496 kts | 68° |
| 2026-04-24 20:52 | 52.32413 | 2.73599 | 39271 ft | 497 kts | 73° |
| 2026-04-24 20:53 | 52.34284 | 2.84485 | 39267 ft | 497 kts | 73° |
| 2026-04-24 20:53 | 52.36175 | 2.95365 | 39270 ft | 498 kts | 73° |
| 2026-04-24 20:54 | 52.38088 | 3.06273 | 39266 ft | 499 kts | 73° |
| 2026-04-24 20:54 | 52.40100 | 3.17141 | 39269 ft | 499 kts | 68° |
| 2026-04-24 20:55 | 52.42979 | 3.27450 | 39280 ft | 498 kts | 62° |
| 2026-04-24 20:55 | 52.46063 | 3.37607 | 39269 ft | 498 kts | 62° |
| 2026-04-24 20:56 | 52.49123 | 3.47814 | 39268 ft | 499 kts | 62° |
| 2026-04-24 20:56 | 52.52144 | 3.58058 | 39266 ft | 499 kts | 63° |
| 2026-04-24 20:57 | 52.55152 | 3.68341 | 39269 ft | 499 kts | 63° |
| 2026-04-24 20:57 | 52.58145 | 3.78618 | 39262 ft | 499 kts | 63° |
| 2026-04-24 20:58 | 52.61134 | 3.88926 | 39269 ft | 499 kts | 63° |
| 2026-04-24 20:58 | 52.64117 | 3.99250 | 39269 ft | 499 kts | 63° |
| 2026-04-24 20:59 | 52.67088 | 4.09576 | 39266 ft | 499 kts | 63° |
| 2026-04-24 20:59 | 52.70047 | 4.19907 | 39267 ft | 499 kts | 63° |
| 2026-04-24 21:00 | 52.73000 | 4.30263 | 39265 ft | 499 kts | 63° |
| 2026-04-24 21:00 | 52.75940 | 4.40614 | 39270 ft | 499 kts | 63° |
| 2026-04-24 21:01 | 52.78871 | 4.50992 | 39269 ft | 498 kts | 63° |
| 2026-04-24 21:01 | 52.81797 | 4.61388 | 39264 ft | 498 kts | 63° |
| 2026-04-24 21:02 | 52.84707 | 4.71772 | 39266 ft | 498 kts | 64° |
| 2026-04-24 21:02 | 52.87611 | 4.82181 | 39264 ft | 498 kts | 64° |
| 2026-04-24 21:03 | 52.90507 | 4.92614 | 39265 ft | 498 kts | 64° |
| 2026-04-24 21:03 | 52.93388 | 5.03042 | 39262 ft | 498 kts | 64° |
| 2026-04-24 21:04 | 52.96263 | 5.13488 | 39264 ft | 497 kts | 64° |
| 2026-04-24 21:04 | 52.99122 | 5.23928 | 39270 ft | 497 kts | 64° |
| 2026-04-24 21:05 | 53.01979 | 5.34398 | 39266 ft | 498 kts | 64° |
| 2026-04-24 21:05 | 53.04769 | 5.44932 | 39264 ft | 498 kts | 66° |
| 2026-04-24 21:06 | 53.07342 | 5.55622 | 39266 ft | 498 kts | 67° |
| 2026-04-24 21:06 | 53.09882 | 5.66366 | 39269 ft | 499 kts | 67° |
| 2026-04-24 21:07 | 53.12434 | 5.77080 | 39271 ft | 499 kts | 67° |
| 2026-04-24 21:07 | 53.15006 | 5.87835 | 39269 ft | 499 kts | 67° |
| 2026-04-24 21:08 | 53.17566 | 5.98573 | 39263 ft | 499 kts | 67° |
| 2026-04-24 21:08 | 53.20116 | 6.09334 | 39252 ft | 499 kts | 67° |
| 2026-04-24 21:09 | 53.22638 | 6.20035 | 39251 ft | 499 kts | 67° |
| 2026-04-24 21:09 | 53.25180 | 6.30877 | 39247 ft | 498 kts | 67° |
| 2026-04-24 21:10 | 53.27680 | 6.41594 | 39238 ft | 498 kts | 67° |
| 2026-04-24 21:10 | 53.30204 | 6.52469 | 39240 ft | 498 kts | 67° |
| 2026-04-24 21:11 | 53.32701 | 6.63281 | 39241 ft | 498 kts | 67° |
| 2026-04-24 21:11 | 53.35189 | 6.74102 | 39233 ft | 499 kts | 68° |
| 2026-04-24 21:12 | 53.37653 | 6.84876 | 39229 ft | 499 kts | 68° |
| 2026-04-24 21:12 | 53.40122 | 6.95735 | 39221 ft | 499 kts | 68° |
| 2026-04-24 21:13 | 53.42601 | 7.06694 | 39210 ft | 496 kts | 68° |
| 2026-04-24 21:13 | 53.43810 | 7.12064 | 38971 ft | 488 kts | 68° |
| 2026-04-24 21:13 | 53.45003 | 7.17370 | 38441 ft | 486 kts | 68° |
| 2026-04-24 21:14 | 53.46182 | 7.22625 | 37685 ft | 489 kts | 67° |
| 2026-04-24 21:14 | 53.47381 | 7.27983 | 36902 ft | 491 kts | 68° |
| 2026-04-24 21:14 | 53.48580 | 7.33353 | 36167 ft | 492 kts | 68° |
| 2026-04-24 21:14 | 53.49779 | 7.38740 | 35388 ft | 493 kts | 68° |
| 2026-04-24 21:15 | 53.50981 | 7.44158 | 34397 ft | 498 kts | 68° |
| 2026-04-24 21:15 | 53.52197 | 7.49647 | 33419 ft | 503 kts | 68° |
| 2026-04-24 21:15 | 53.53410 | 7.55143 | 32702 ft | 500 kts | 68° |
| 2026-04-24 21:15 | 53.54609 | 7.60594 | 32229 ft | 493 kts | 68° |
| 2026-04-24 21:16 | 53.55783 | 7.65947 | 31763 ft | 485 kts | 68° |
| 2026-04-24 21:16 | 53.56942 | 7.71239 | 31240 ft | 479 kts | 68° |
| 2026-04-24 21:16 | 53.58085 | 7.76467 | 30692 ft | 475 kts | 68° |
| 2026-04-24 21:16 | 53.59217 | 7.81663 | 30140 ft | 470 kts | 68° |
| 2026-04-24 21:17 | 53.60337 | 7.86811 | 29598 ft | 466 kts | 68° |
| 2026-04-24 21:17 | 53.61444 | 7.91910 | 29041 ft | 462 kts | 68° |
| 2026-04-24 21:17 | 53.62542 | 7.96982 | 28463 ft | 459 kts | 68° |
| 2026-04-24 21:17 | 53.63279 | 8.00392 | 28071 ft | 457 kts | 69° |
| 2026-04-24 21:18 | 53.64636 | 8.07067 | 27274 ft | 454 kts | 70° |
| 2026-04-24 21:18 | 53.65598 | 8.12132 | 26673 ft | 452 kts | 71° |
| 2026-04-24 21:18 | 53.66539 | 8.17183 | 26125 ft | 449 kts | 71° |
| 2026-04-24 21:18 | 53.67469 | 8.22187 | 25579 ft | 446 kts | 71° |
| 2026-04-24 21:19 | 53.68399 | 8.27161 | 25021 ft | 444 kts | 71° |
| 2026-04-24 21:19 | 53.69327 | 8.32105 | 24473 ft | 441 kts | 71° |
| 2026-04-24 21:19 | 53.70252 | 8.37009 | 23926 ft | 438 kts | 71° |
| 2026-04-24 21:19 | 53.71174 | 8.41911 | 23375 ft | 436 kts | 71° |
| 2026-04-24 21:20 | 53.72992 | 8.51602 | 22412 ft | 429 kts | 71° |
| 2026-04-24 21:20 | 53.73884 | 8.56376 | 21942 ft | 425 kts | 71° |
| 2026-04-24 21:20 | 53.74768 | 8.61118 | 21455 ft | 422 kts | 71° |
| 2026-04-24 21:21 | 53.75645 | 8.65824 | 20967 ft | 419 kts | 71° |
| 2026-04-24 21:21 | 53.76515 | 8.70518 | 20474 ft | 416 kts | 71° |
| 2026-04-24 21:21 | 53.77374 | 8.75159 | 20015 ft | 412 kts | 71° |
| 2026-04-24 21:21 | 53.78226 | 8.79772 | 19550 ft | 409 kts | 71° |
| 2026-04-24 21:22 | 53.79069 | 8.84351 | 19068 ft | 407 kts | 70° |
| 2026-04-24 21:22 | 53.79904 | 8.88893 | 18607 ft | 404 kts | 70° |
| 2026-04-24 21:22 | 53.80732 | 8.93408 | 18262 ft | 397 kts | 70° |
| 2026-04-24 21:22 | 53.81269 | 8.96350 | 18007 ft | 393 kts | 70° |
| 2026-04-24 21:23 | 53.82262 | 9.02272 | 17419 ft | 391 kts | 76° |
| 2026-04-24 21:23 | 53.82611 | 9.06828 | 16893 ft | 391 kts | 84° |
| 2026-04-24 21:23 | 53.82621 | 9.11434 | 16406 ft | 391 kts | 92° |
| 2026-04-24 21:23 | 53.82360 | 9.15996 | 15929 ft | 389 kts | 94° |
| 2026-04-24 21:24 | 53.82075 | 9.20541 | 15467 ft | 387 kts | 94° |
| 2026-04-24 21:24 | 53.81807 | 9.25042 | 15017 ft | 384 kts | 94° |
| 2026-04-24 21:24 | 53.81551 | 9.29526 | 14549 ft | 381 kts | 93° |
| 2026-04-24 21:24 | 53.81336 | 9.33960 | 14060 ft | 373 kts | 88° |
| 2026-04-24 21:25 | 53.81616 | 9.38291 | 13368 ft | 371 kts | 74° |
| 2026-04-24 21:25 | 53.82199 | 9.42546 | 12861 ft | 370 kts | 73° |
| 2026-04-24 21:25 | 53.82770 | 9.46751 | 12566 ft | 360 kts | 73° |
| 2026-04-24 21:25 | 53.83279 | 9.50712 | 12289 ft | 331 kts | 73° |
| 2026-04-24 21:26 | 53.83741 | 9.54426 | 11734 ft | 316 kts | 73° |
| 2026-04-24 21:26 | 53.84183 | 9.58027 | 11006 ft | 309 kts | 73° |
| 2026-04-24 21:26 | 53.84613 | 9.61573 | 10207 ft | 306 kts | 73° |
| 2026-04-24 21:26 | 53.85035 | 9.65080 | 9415 ft | 303 kts | 73° |
| 2026-04-24 21:27 | 53.85452 | 9.68558 | 8652 ft | 298 kts | 74° |
| 2026-04-24 21:27 | 53.85857 | 9.71971 | 7896 ft | 294 kts | 73° |
| 2026-04-24 21:27 | 53.86257 | 9.75365 | 7194 ft | 297 kts | 73° |
| 2026-04-24 21:27 | 53.86525 | 9.77635 | 6974 ft | 296 kts | 73° |
| 2026-04-24 21:28 | 53.86748 | 9.82245 | 6515 ft | 297 kts | 90° |
| 2026-04-24 21:28 | 53.86510 | 9.85721 | 6253 ft | 295 kts | 94° |
| 2026-04-24 21:28 | 53.86210 | 9.89142 | 5980 ft | 293 kts | 94° |
| 2026-04-24 21:28 | 53.85911 | 9.92543 | 5684 ft | 292 kts | 96° |
| 2026-04-24 21:29 | 53.85527 | 9.95918 | 5379 ft | 291 kts | 98° |
| 2026-04-24 21:29 | 53.85120 | 9.99272 | 5074 ft | 291 kts | 98° |
| 2026-04-24 21:29 | 53.84713 | 10.02618 | 4781 ft | 290 kts | 98° |
| 2026-04-24 21:29 | 53.84303 | 10.05951 | 4505 ft | 288 kts | 98° |
| 2026-04-24 21:30 | 53.83894 | 10.09254 | 4221 ft | 285 kts | 98° |
| 2026-04-24 21:30 | 53.83268 | 10.12408 | 3788 ft | 288 kts | 118° |
| 2026-04-24 21:30 | 53.82136 | 10.15205 | 3374 ft | 287 kts | 124° |
| 2026-04-24 21:30 | 53.81010 | 10.17863 | 3219 ft | 274 kts | 124° |
| 2026-04-24 21:31 | 53.79941 | 10.20373 | 3043 ft | 253 kts | 124° |
| 2026-04-24 21:31 | 53.78744 | 10.22549 | 2992 ft | 256 kts | 148° |
| 2026-04-24 21:31 | 53.77092 | 10.23534 | 2992 ft | 252 kts | 181° |
| 2026-04-24 21:31 | 53.75450 | 10.22981 | 2987 ft | 233 kts | 216° |
| 2026-04-24 21:32 | 53.74270 | 10.21359 | 2976 ft | 208 kts | 232° |
| 2026-04-24 21:32 | 53.73295 | 10.19635 | 2974 ft | 195 kts | 236° |
| 2026-04-24 21:32 | 53.72421 | 10.17902 | 2741 ft | 193 kts | 237° |
| 2026-04-24 21:32 | 53.71592 | 10.16213 | 2494 ft | 181 kts | 237° |
| 2026-04-24 21:33 | 53.70800 | 10.14590 | 2267 ft | 180 kts | 236° |
| 2026-04-24 21:33 | 53.70275 | 10.13521 | 2091 ft | 175 kts | 236° |
| 2026-04-24 21:33 | 53.69270 | 10.11476 | 1775 ft | 163 kts | 234° |
| 2026-04-24 21:33 | 53.68574 | 10.10063 | 1566 ft | 153 kts | 234° |
| 2026-04-24 21:34 | 53.67903 | 10.08696 | 1375 ft | 151 kts | 233° |
| 2026-04-24 21:34 | 53.67251 | 10.07371 | 1184 ft | 143 kts | 233° |
| 2026-04-24 21:34 | 53.66829 | 10.06513 | 1063 ft | 141 kts | 233° |
| 2026-04-24 21:34 | 53.66194 | 10.05223 | 883 ft | 144 kts | 233° |
| 2026-04-24 21:35 | 53.65555 | 10.03926 | 677 ft | 143 kts | 233° |
| 2026-04-24 21:35 | 53.64926 | 10.02654 | 485 ft | 143 kts | 231° |
| 2026-04-24 21:35 | 53.64288 | 10.01362 | 306 ft | 144 kts | 231° |
| 2026-04-24 21:35 | 53.63660 | 10.00091 | 128 ft | 142 kts | 232° |
| 2026-04-24 21:36 | 53.63112 | 9.98971 | 45 ft | 130 kts | 231° |
| 2026-04-24 21:36 | 53.62650 | 9.98037 | 48 ft | 67 kts | 230° |
| 2026-04-24 21:36 | 53.62467 | 9.97666 | 46 ft | 29 kts | 230° |
| 2026-04-24 21:36 | 53.62335 | 9.97402 | 47 ft | 29 kts | 230° |
| 2026-04-24 21:37 | 53.62196 | 9.97119 | 47 ft | 39 kts | 230° |
| 2026-04-24 21:37 | 53.61999 | 9.96718 | 44 ft | 45 kts | 230° |
| 2026-04-24 21:37 | 53.61880 | 9.96487 | 45 ft | 20 kts | 223° |
| 2026-04-24 21:37 | 53.61751 | 9.96422 | 44 ft | 21 kts | 182° |
| 2026-04-24 21:38 | 53.61688 | 9.96580 | 43 ft | 21 kts | 62° |
| 2026-04-24 21:38 | 53.61765 | 9.96734 | 41 ft | 16 kts | 51° |
| 2026-04-24 21:38 | 53.61830 | 9.96879 | 43 ft | 16 kts | 51° |
| 2026-04-24 21:38 | 53.61902 | 9.97021 | 44 ft | 16 kts | 50° |
| 2026-04-24 21:39 | 53.61972 | 9.97162 | 44 ft | 16 kts | 50° |
| 2026-04-24 21:39 | 53.62041 | 9.97303 | 45 ft | 16 kts | 50° |
| 2026-04-24 21:39 | 53.62111 | 9.97445 | 45 ft | 16 kts | 50° |
| 2026-04-24 21:39 | 53.62182 | 9.97585 | 45 ft | 16 kts | 50° |
| 2026-04-24 21:40 | 53.62251 | 9.97728 | 45 ft | 16 kts | 51° |
| 2026-04-24 21:40 | 53.62322 | 9.97873 | 46 ft | 18 kts | 50° |
| 2026-04-24 21:40 | 53.62439 | 9.98094 | 46 ft | 30 kts | 43° |
| 2026-04-24 21:40 | 53.62585 | 9.98340 | 47 ft | 30 kts | 50° |
| 2026-04-24 21:41 | 53.62717 | 9.98605 | 48 ft | 30 kts | 50° |
| 2026-04-24 21:41 | 53.62849 | 9.98872 | 48 ft | 30 kts | 50° |
| 2026-04-24 21:41 | 53.62964 | 9.99107 | 49 ft | 20 kts | 50° |
| 2026-04-24 21:41 | 53.63052 | 9.99289 | 49 ft | 16 kts | 53° |
| 2026-04-24 21:42 | 53.63073 | 9.99340 | 49 ft | 0 kts | 55° |
| 2026-04-24 21:43 | 53.63123 | 9.99459 | 50 ft | 29 kts | 54° |
| 2026-04-24 21:43 | 53.63244 | 9.99704 | 47 ft | 21 kts | 46° |
| 2026-04-24 21:43 | 53.63339 | 9.99884 | 49 ft | 21 kts | 50° |
| 2026-04-24 21:43 | 53.63429 | 10.00068 | 51 ft | 18 kts | 50° |
| 2026-04-24 21:44 | 53.63404 | 10.00187 | 49 ft | 14 kts | 169° |
| 2026-04-24 21:44 | 53.63310 | 10.00201 | 49 ft | 10 kts | 175° |
| 2026-04-24 21:44 | 53.63266 | 10.00206 | 47 ft | 3 kts | 176° |
| 2026-04-24 21:44 | 53.63251 | 10.00208 | 48 ft | 2 kts | 176° |
| 2026-04-24 21:45 | 53.63230 | 10.00211 | 47 ft | 4 kts | 176° |
| 2026-04-24 21:45 | 53.63199 | 10.00214 | 50 ft | 5 kts | 176° |
| 2026-04-24 21:45 | 53.63159 | 10.00219 | 50 ft | 6 kts | 175° |
| 2026-04-24 21:45 | 53.63110 | 10.00225 | 47 ft | 8 kts | 178° |
| 2026-04-24 21:46 | 53.63056 | 10.00234 | 49 ft | 8 kts | 148° |
| 2026-04-24 21:46 | 53.63033 | 10.00293 | 49 ft | 5 kts | 122° |
| 2026-04-24 21:46 | 53.63023 | 10.00320 | 47 ft | 3 kts | 121° |
| 2026-04-24 21:46 | 53.63017 | 10.00337 | 50 ft | 2 kts | 121° |
| 2026-04-24 21:47 | 53.63015 | 10.00342 | 50 ft | 0 kts | 121° |